sensor_id;sensor_type;location;lat;lon;timestamp;P1;durP1;ratioP1;P2;durP2;ratioP2
44558;SDS011;30270;40.238;18.256;2022-09-24T00:01:39;2.85;;;2.10;;
44558;SDS011;30270;40.238;18.256;2022-09-24T00:04:07;2.90;;;2.20;;
44558;SDS011;30270;40.238;18.256;2022-09-24T00:06:42;3.00;;;2.15;;
44558;SDS011;30270;40.238;18.256;2022-09-24T00:09:11;4.13;;;2.35;;
44558;SDS011;30270;40.238;18.256;2022-09-24T00:11:41;3.42;;;2.10;;
44558;SDS011;30270;40.238;18.256;2022-09-24T00:14:11;4.68;;;2.33;;
44558;SDS011;30270;40.238;18.256;2022-09-24T00:16:39;5.22;;;2.55;;
44558;SDS011;30270;40.238;18.256;2022-09-24T00:19:08;3.45;;;2.13;;
44558;SDS011;30270;40.238;18.256;2022-09-24T00:21:37;3.80;;;2.20;;
44558;SDS011;30270;40.238;18.256;2022-09-24T00:24:07;5.43;;;3.00;;
44558;SDS011;30270;40.238;18.256;2022-09-24T00:26:58;7.35;;;2.53;;
44558;SDS011;30270;40.238;18.256;2022-09-24T00:29:26;3.83;;;2.05;;
44558;SDS011;30270;40.238;18.256;2022-09-24T00:31:54;3.22;;;2.08;;
44558;SDS011;30270;40.238;18.256;2022-09-24T00:34:21;5.85;;;2.50;;
44558;SDS011;30270;40.238;18.256;2022-09-24T00:36:50;3.30;;;2.10;;
44558;SDS011;30270;40.238;18.256;2022-09-24T00:39:18;4.28;;;2.78;;
44558;SDS011;30270;40.238;18.256;2022-09-24T00:41:46;5.10;;;1.98;;
44558;SDS011;30270;40.238;18.256;2022-09-24T00:47:10;3.65;;;2.70;;
44558;SDS011;30270;40.238;18.256;2022-09-24T00:50:14;4.63;;;1.95;;
44558;SDS011;30270;40.238;18.256;2022-09-24T00:52:52;3.65;;;2.25;;
44558;SDS011;30270;40.238;18.256;2022-09-24T00:55:23;4.85;;;2.20;;
44558;SDS011;30270;40.238;18.256;2022-09-24T00:57:57;4.47;;;2.20;;
44558;SDS011;30270;40.238;18.256;2022-09-24T01:00:26;4.30;;;2.25;;
44558;SDS011;30270;40.238;18.256;2022-09-24T01:02:55;4.03;;;1.95;;
44558;SDS011;30270;40.238;18.256;2022-09-24T01:05:28;3.85;;;2.20;;
44558;SDS011;30270;40.238;18.256;2022-09-24T01:07:56;3.58;;;1.75;;
44558;SDS011;30270;40.238;18.256;2022-09-24T01:10:33;3.10;;;2.30;;
44558;SDS011;30270;40.238;18.256;2022-09-24T01:16:28;4.40;;;1.85;;
44558;SDS011;30270;40.238;18.256;2022-09-24T01:19:24;3.33;;;1.90;;
44558;SDS011;30270;40.238;18.256;2022-09-24T01:31:13;3.00;;;2.13;;
44558;SDS011;30270;40.238;18.256;2022-09-24T01:33:46;2.97;;;2.00;;
44558;SDS011;30270;40.238;18.256;2022-09-24T01:36:19;4.03;;;2.33;;
44558;SDS011;30270;40.238;18.256;2022-09-24T01:38:49;4.88;;;2.25;;
44558;SDS011;30270;40.238;18.256;2022-09-24T01:41:19;5.22;;;2.42;;
44558;SDS011;30270;40.238;18.256;2022-09-24T01:43:48;5.30;;;3.30;;
44558;SDS011;30270;40.238;18.256;2022-09-24T01:46:16;6.28;;;3.78;;
44558;SDS011;30270;40.238;18.256;2022-09-24T01:48:45;6.20;;;3.35;;
44558;SDS011;30270;40.238;18.256;2022-09-24T01:53:57;8.45;;;2.72;;
44558;SDS011;30270;40.238;18.256;2022-09-24T01:56:33;4.60;;;2.30;;
44558;SDS011;30270;40.238;18.256;2022-09-24T02:02:45;4.35;;;2.97;;
44558;SDS011;30270;40.238;18.256;2022-09-24T02:05:38;4.80;;;3.03;;
44558;SDS011;30270;40.238;18.256;2022-09-24T02:08:36;5.28;;;3.28;;
44558;SDS011;30270;40.238;18.256;2022-09-24T02:11:10;5.18;;;3.22;;
44558;SDS011;30270;40.238;18.256;2022-09-24T02:13:56;4.97;;;3.47;;
44558;SDS011;30270;40.238;18.256;2022-09-24T02:16:28;4.45;;;3.03;;
44558;SDS011;30270;40.238;18.256;2022-09-24T02:19:00;5.22;;;2.53;;
44558;SDS011;30270;40.238;18.256;2022-09-24T02:21:31;5.43;;;2.17;;
44558;SDS011;30270;40.238;18.256;2022-09-24T02:24:03;3.10;;;1.88;;
44558;SDS011;30270;40.238;18.256;2022-09-24T02:26:34;5.57;;;3.10;;
44558;SDS011;30270;40.238;18.256;2022-09-24T02:29:01;4.05;;;2.13;;
44558;SDS011;30270;40.238;18.256;2022-09-24T02:31:33;3.05;;;2.03;;
44558;SDS011;30270;40.238;18.256;2022-09-24T02:34:09;4.60;;;2.40;;
44558;SDS011;30270;40.238;18.256;2022-09-24T02:36:49;4.80;;;2.58;;
44558;SDS011;30270;40.238;18.256;2022-09-24T02:41:52;3.33;;;1.92;;
44558;SDS011;30270;40.238;18.256;2022-09-24T02:44:20;3.85;;;2.25;;
44558;SDS011;30270;40.238;18.256;2022-09-24T02:46:48;2.88;;;2.08;;
44558;SDS011;30270;40.238;18.256;2022-09-24T02:49:16;2.75;;;1.73;;
44558;SDS011;30270;40.238;18.256;2022-09-24T02:51:44;2.50;;;2.00;;
44558;SDS011;30270;40.238;18.256;2022-09-24T02:54:12;3.28;;;2.17;;
44558;SDS011;30270;40.238;18.256;2022-09-24T02:56:39;3.25;;;1.65;;
44558;SDS011;30270;40.238;18.256;2022-09-24T02:59:07;3.28;;;1.98;;
44558;SDS011;30270;40.238;18.256;2022-09-24T03:01:35;3.20;;;1.75;;
44558;SDS011;30270;40.238;18.256;2022-09-24T03:04:02;3.20;;;1.90;;
44558;SDS011;30270;40.238;18.256;2022-09-24T03:06:30;3.72;;;1.92;;
44558;SDS011;30270;40.238;18.256;2022-09-24T03:08:58;3.60;;;1.88;;
44558;SDS011;30270;40.238;18.256;2022-09-24T03:11:28;3.55;;;1.83;;
44558;SDS011;30270;40.238;18.256;2022-09-24T03:13:57;4.03;;;2.40;;
44558;SDS011;30270;40.238;18.256;2022-09-24T03:16:25;3.53;;;2.35;;
44558;SDS011;30270;40.238;18.256;2022-09-24T03:18:52;3.72;;;2.10;;
44558;SDS011;30270;40.238;18.256;2022-09-24T03:21:20;4.50;;;2.17;;
44558;SDS011;30270;40.238;18.256;2022-09-24T03:23:48;6.18;;;2.65;;
44558;SDS011;30270;40.238;18.256;2022-09-24T03:26:16;3.38;;;1.85;;
44558;SDS011;30270;40.238;18.256;2022-09-24T03:28:44;5.28;;;2.00;;
44558;SDS011;30270;40.238;18.256;2022-09-24T03:31:11;4.88;;;2.13;;
44558;SDS011;30270;40.238;18.256;2022-09-24T03:36:13;3.22;;;1.70;;
44558;SDS011;30270;40.238;18.256;2022-09-24T03:38:43;3.05;;;1.73;;
44558;SDS011;30270;40.238;18.256;2022-09-24T03:41:12;2.10;;;1.40;;
44558;SDS011;30270;40.238;18.256;2022-09-24T03:43:40;3.38;;;1.45;;
44558;SDS011;30270;40.238;18.256;2022-09-24T03:46:08;2.47;;;1.55;;
44558;SDS011;30270;40.238;18.256;2022-09-24T03:48:37;2.60;;;1.27;;
44558;SDS011;30270;40.238;18.256;2022-09-24T03:51:10;2.55;;;1.17;;
44558;SDS011;30270;40.238;18.256;2022-09-24T03:53:44;4.93;;;1.65;;
44558;SDS011;30270;40.238;18.256;2022-09-24T03:56:12;2.20;;;1.50;;
44558;SDS011;30270;40.238;18.256;2022-09-24T03:58:40;2.38;;;1.35;;
44558;SDS011;30270;40.238;18.256;2022-09-24T04:01:10;2.00;;;1.30;;
44558;SDS011;30270;40.238;18.256;2022-09-24T04:03:38;2.20;;;1.40;;
44558;SDS011;30270;40.238;18.256;2022-09-24T04:06:06;3.63;;;2.25;;
44558;SDS011;30270;40.238;18.256;2022-09-24T04:08:34;4.13;;;1.88;;
44558;SDS011;30270;40.238;18.256;2022-09-24T04:11:01;2.63;;;1.70;;
44558;SDS011;30270;40.238;18.256;2022-09-24T04:13:29;1.75;;;1.20;;
44558;SDS011;30270;40.238;18.256;2022-09-24T04:16:00;1.95;;;1.45;;
44558;SDS011;30270;40.238;18.256;2022-09-24T04:18:31;1.83;;;1.33;;
44558;SDS011;30270;40.238;18.256;2022-09-24T04:21:01;3.35;;;1.80;;
44558;SDS011;30270;40.238;18.256;2022-09-24T04:23:28;3.72;;;1.98;;
44558;SDS011;30270;40.238;18.256;2022-09-24T04:25:57;5.55;;;2.00;;
44558;SDS011;30270;40.238;18.256;2022-09-24T04:28:28;2.90;;;1.98;;
44558;SDS011;30270;40.238;18.256;2022-09-24T04:30:56;3.78;;;1.58;;
44558;SDS011;30270;40.238;18.256;2022-09-24T04:33:24;2.88;;;1.90;;
44558;SDS011;30270;40.238;18.256;2022-09-24T04:35:52;2.50;;;1.95;;
44558;SDS011;30270;40.238;18.256;2022-09-24T04:38:19;2.53;;;1.67;;
44558;SDS011;30270;40.238;18.256;2022-09-24T04:40:47;2.58;;;1.63;;
44558;SDS011;30270;40.238;18.256;2022-09-24T04:43:15;3.58;;;1.80;;
44558;SDS011;30270;40.238;18.256;2022-09-24T04:45:45;3.20;;;1.70;;
44558;SDS011;30270;40.238;18.256;2022-09-24T04:48:12;5.00;;;1.77;;
44558;SDS011;30270;40.238;18.256;2022-09-24T04:50:40;4.97;;;1.75;;
44558;SDS011;30270;40.238;18.256;2022-09-24T04:53:11;4.30;;;1.73;;
44558;SDS011;30270;40.238;18.256;2022-09-24T04:55:39;3.60;;;1.90;;
44558;SDS011;30270;40.238;18.256;2022-09-24T04:58:07;3.30;;;1.35;;
44558;SDS011;30270;40.238;18.256;2022-09-24T05:00:36;2.78;;;1.58;;
44558;SDS011;30270;40.238;18.256;2022-09-24T05:03:04;2.97;;;1.85;;
44558;SDS011;30270;40.238;18.256;2022-09-24T05:05:32;4.25;;;1.50;;
44558;SDS011;30270;40.238;18.256;2022-09-24T05:08:00;2.42;;;1.70;;
44558;SDS011;30270;40.238;18.256;2022-09-24T05:10:29;3.35;;;1.40;;
44558;SDS011;30270;40.238;18.256;2022-09-24T05:12:59;3.13;;;1.67;;
44558;SDS011;30270;40.238;18.256;2022-09-24T05:15:28;2.72;;;1.48;;
44558;SDS011;30270;40.238;18.256;2022-09-24T05:17:55;2.13;;;1.30;;
44558;SDS011;30270;40.238;18.256;2022-09-24T05:20:24;2.38;;;1.73;;
44558;SDS011;30270;40.238;18.256;2022-09-24T05:22:51;4.82;;;1.90;;
44558;SDS011;30270;40.238;18.256;2022-09-24T05:25:20;2.10;;;1.23;;
44558;SDS011;30270;40.238;18.256;2022-09-24T05:27:49;2.03;;;1.20;;
44558;SDS011;30270;40.238;18.256;2022-09-24T05:30:19;2.70;;;1.25;;
44558;SDS011;30270;40.238;18.256;2022-09-24T05:32:48;2.28;;;1.30;;
44558;SDS011;30270;40.238;18.256;2022-09-24T05:35:18;2.78;;;1.48;;
44558;SDS011;30270;40.238;18.256;2022-09-24T05:37:46;14.75;;;2.25;;
44558;SDS011;30270;40.238;18.256;2022-09-24T05:40:15;7.07;;;2.20;;
44558;SDS011;30270;40.238;18.256;2022-09-24T05:43:02;3.13;;;1.58;;
44558;SDS011;30270;40.238;18.256;2022-09-24T05:45:30;2.83;;;1.80;;
44558;SDS011;30270;40.238;18.256;2022-09-24T05:47:58;1.55;;;1.40;;
44558;SDS011;30270;40.238;18.256;2022-09-24T05:50:26;3.25;;;1.35;;
44558;SDS011;30270;40.238;18.256;2022-09-24T05:52:54;2.20;;;1.30;;
44558;SDS011;30270;40.238;18.256;2022-09-24T05:55:22;3.08;;;1.48;;
44558;SDS011;30270;40.238;18.256;2022-09-24T05:57:50;5.10;;;2.22;;
44558;SDS011;30270;40.238;18.256;2022-09-24T06:00:18;2.85;;;1.50;;
44558;SDS011;30270;40.238;18.256;2022-09-24T06:02:45;4.00;;;1.60;;
44558;SDS011;30270;40.238;18.256;2022-09-24T06:05:13;2.83;;;1.50;;
44558;SDS011;30270;40.238;18.256;2022-09-24T06:07:41;2.15;;;1.40;;
44558;SDS011;30270;40.238;18.256;2022-09-24T06:10:08;2.88;;;1.85;;
44558;SDS011;30270;40.238;18.256;2022-09-24T06:12:36;2.10;;;1.30;;
44558;SDS011;30270;40.238;18.256;2022-09-24T06:15:04;3.30;;;1.90;;
44558;SDS011;30270;40.238;18.256;2022-09-24T06:17:32;1.60;;;1.50;;
44558;SDS011;30270;40.238;18.256;2022-09-24T06:20:00;1.85;;;1.20;;
44558;SDS011;30270;40.238;18.256;2022-09-24T06:22:28;1.50;;;1.30;;
44558;SDS011;30270;40.238;18.256;2022-09-24T06:24:55;3.90;;;1.40;;
44558;SDS011;30270;40.238;18.256;2022-09-24T06:27:23;3.38;;;1.38;;
44558;SDS011;30270;40.238;18.256;2022-09-24T06:29:51;3.20;;;1.27;;
44558;SDS011;30270;40.238;18.256;2022-09-24T06:32:18;2.00;;;1.10;;
44558;SDS011;30270;40.238;18.256;2022-09-24T06:34:46;3.92;;;1.10;;
44558;SDS011;30270;40.238;18.256;2022-09-24T06:37:13;1.55;;;1.23;;
44558;SDS011;30270;40.238;18.256;2022-09-24T06:39:41;3.13;;;1.20;;
44558;SDS011;30270;40.238;18.256;2022-09-24T06:42:08;2.20;;;1.42;;
44558;SDS011;30270;40.238;18.256;2022-09-24T06:44:37;2.33;;;1.30;;
44558;SDS011;30270;40.238;18.256;2022-09-24T06:47:05;2.78;;;1.08;;
44558;SDS011;30270;40.238;18.256;2022-09-24T06:49:33;2.20;;;1.55;;
44558;SDS011;30270;40.238;18.256;2022-09-24T06:52:00;2.92;;;1.20;;
44558;SDS011;30270;40.238;18.256;2022-09-24T06:54:28;4.40;;;1.40;;
44558;SDS011;30270;40.238;18.256;2022-09-24T06:56:56;2.88;;;1.67;;
44558;SDS011;30270;40.238;18.256;2022-09-24T06:59:23;2.92;;;1.55;;
44558;SDS011;30270;40.238;18.256;2022-09-24T07:01:51;1.73;;;1.15;;
44558;SDS011;30270;40.238;18.256;2022-09-24T07:04:19;3.58;;;1.50;;
44558;SDS011;30270;40.238;18.256;2022-09-24T07:06:46;2.35;;;1.23;;
44558;SDS011;30270;40.238;18.256;2022-09-24T07:09:33;3.13;;;1.20;;
44558;SDS011;30270;40.238;18.256;2022-09-24T07:12:01;4.13;;;1.65;;
44558;SDS011;30270;40.238;18.256;2022-09-24T07:14:31;1.85;;;1.27;;
44558;SDS011;30270;40.238;18.256;2022-09-24T07:16:59;1.77;;;1.20;;
44558;SDS011;30270;40.238;18.256;2022-09-24T07:19:26;4.65;;;1.30;;
44558;SDS011;30270;40.238;18.256;2022-09-24T07:21:55;2.30;;;1.55;;
44558;SDS011;30270;40.238;18.256;2022-09-24T07:24:23;2.03;;;1.23;;
44558;SDS011;30270;40.238;18.256;2022-09-24T07:26:51;6.80;;;1.30;;
44558;SDS011;30270;40.238;18.256;2022-09-24T07:29:18;3.50;;;1.48;;
44558;SDS011;30270;40.238;18.256;2022-09-24T07:31:46;2.15;;;1.40;;
44558;SDS011;30270;40.238;18.256;2022-09-24T07:34:13;4.97;;;1.55;;
44558;SDS011;30270;40.238;18.256;2022-09-24T07:36:41;3.45;;;1.40;;
44558;SDS011;30270;40.238;18.256;2022-09-24T07:39:09;2.10;;;1.17;;
44558;SDS011;30270;40.238;18.256;2022-09-24T07:41:36;2.50;;;1.33;;
44558;SDS011;30270;40.238;18.256;2022-09-24T07:44:07;2.75;;;1.50;;
44558;SDS011;30270;40.238;18.256;2022-09-24T07:46:35;2.17;;;1.42;;
44558;SDS011;30270;40.238;18.256;2022-09-24T07:49:03;2.15;;;1.30;;
44558;SDS011;30270;40.238;18.256;2022-09-24T07:51:30;2.85;;;1.10;;
44558;SDS011;30270;40.238;18.256;2022-09-24T07:53:58;5.13;;;2.00;;
44558;SDS011;30270;40.238;18.256;2022-09-24T07:56:25;5.72;;;1.63;;
44558;SDS011;30270;40.238;18.256;2022-09-24T07:58:53;3.45;;;1.60;;
44558;SDS011;30270;40.238;18.256;2022-09-24T08:01:20;1.90;;;1.27;;
44558;SDS011;30270;40.238;18.256;2022-09-24T08:03:49;3.00;;;1.48;;
44558;SDS011;30270;40.238;18.256;2022-09-24T08:06:18;4.10;;;1.63;;
44558;SDS011;30270;40.238;18.256;2022-09-24T08:08:49;4.28;;;1.20;;
44558;SDS011;30270;40.238;18.256;2022-09-24T08:11:18;2.30;;;1.52;;
44558;SDS011;30270;40.238;18.256;2022-09-24T08:13:47;2.53;;;1.20;;
44558;SDS011;30270;40.238;18.256;2022-09-24T08:16:14;1.77;;;1.00;;
44558;SDS011;30270;40.238;18.256;2022-09-24T08:18:42;4.03;;;1.45;;
44558;SDS011;30270;40.238;18.256;2022-09-24T08:21:10;1.65;;;1.27;;
44558;SDS011;30270;40.238;18.256;2022-09-24T08:23:41;1.48;;;1.00;;
44558;SDS011;30270;40.238;18.256;2022-09-24T08:26:09;3.47;;;1.42;;
44558;SDS011;30270;40.238;18.256;2022-09-24T08:28:38;1.98;;;1.40;;
44558;SDS011;30270;40.238;18.256;2022-09-24T08:31:09;2.53;;;1.20;;
44558;SDS011;30270;40.238;18.256;2022-09-24T08:33:38;4.07;;;1.80;;
44558;SDS011;30270;40.238;18.256;2022-09-24T08:36:07;8.68;;;3.05;;
44558;SDS011;30270;40.238;18.256;2022-09-24T08:38:35;3.95;;;1.33;;
44558;SDS011;30270;40.238;18.256;2022-09-24T08:41:22;3.00;;;1.60;;
44558;SDS011;30270;40.238;18.256;2022-09-24T08:47:55;2.55;;;1.30;;
44558;SDS011;30270;40.238;18.256;2022-09-24T08:55:11;1.67;;;1.20;;
44558;SDS011;30270;40.238;18.256;2022-09-24T08:58:04;3.03;;;1.25;;
44558;SDS011;30270;40.238;18.256;2022-09-24T09:03:39;2.97;;;1.10;;
44558;SDS011;30270;40.238;18.256;2022-09-24T09:11:58;3.45;;;1.15;;
44558;SDS011;30270;40.238;18.256;2022-09-24T09:14:47;2.03;;;1.00;;
44558;SDS011;30270;40.238;18.256;2022-09-24T09:25:49;1.85;;;1.40;;
44558;SDS011;30270;40.238;18.256;2022-09-24T09:28:20;2.00;;;1.38;;
44558;SDS011;30270;40.238;18.256;2022-09-24T09:31:10;2.45;;;1.27;;
44558;SDS011;30270;40.238;18.256;2022-09-24T09:39:19;2.65;;;0.93;;
44558;SDS011;30270;40.238;18.256;2022-09-24T09:42:03;2.08;;;1.13;;
44558;SDS011;30270;40.238;18.256;2022-09-24T09:44:47;1.80;;;1.10;;
44558;SDS011;30270;40.238;18.256;2022-09-24T09:47:24;3.13;;;1.77;;
44558;SDS011;30270;40.238;18.256;2022-09-24T09:50:03;3.38;;;1.50;;
44558;SDS011;30270;40.238;18.256;2022-09-24T09:52:40;3.17;;;1.00;;
44558;SDS011;30270;40.238;18.256;2022-09-24T09:55:18;1.50;;;1.00;;
44558;SDS011;30270;40.238;18.256;2022-09-24T09:57:50;1.52;;;0.93;;
44558;SDS011;30270;40.238;18.256;2022-09-24T10:00:23;3.90;;;2.20;;
44558;SDS011;30270;40.238;18.256;2022-09-24T10:03:00;4.88;;;1.20;;
44558;SDS011;30270;40.238;18.256;2022-09-24T10:05:29;2.33;;;1.13;;
44558;SDS011;30270;40.238;18.256;2022-09-24T10:07:57;2.70;;;1.05;;
44558;SDS011;30270;40.238;18.256;2022-09-24T10:10:25;1.83;;;1.00;;
44558;SDS011;30270;40.238;18.256;2022-09-24T10:13:11;2.05;;;1.02;;
44558;SDS011;30270;40.238;18.256;2022-09-24T10:15:46;1.75;;;1.20;;
44558;SDS011;30270;40.238;18.256;2022-09-24T10:18:22;1.58;;;1.30;;
44558;SDS011;30270;40.238;18.256;2022-09-24T10:20:56;2.05;;;1.20;;
44558;SDS011;30270;40.238;18.256;2022-09-24T10:23:31;3.15;;;1.27;;
44558;SDS011;30270;40.238;18.256;2022-09-24T10:26:08;5.30;;;1.45;;
44558;SDS011;30270;40.238;18.256;2022-09-24T10:28:38;3.88;;;1.55;;
44558;SDS011;30270;40.238;18.256;2022-09-24T10:31:36;2.55;;;1.40;;
44558;SDS011;30270;40.238;18.256;2022-09-24T10:34:16;6.75;;;1.60;;
44558;SDS011;30270;40.238;18.256;2022-09-24T10:36:49;3.58;;;2.20;;
44558;SDS011;30270;40.238;18.256;2022-09-24T10:39:19;2.45;;;1.23;;
44558;SDS011;30270;40.238;18.256;2022-09-24T10:41:52;3.65;;;1.20;;
44558;SDS011;30270;40.238;18.256;2022-09-24T10:44:23;1.98;;;1.20;;
44558;SDS011;30270;40.238;18.256;2022-09-24T11:03:53;2.58;;;1.50;;
44558;SDS011;30270;40.238;18.256;2022-09-24T11:09:47;2.10;;;1.27;;
44558;SDS011;30270;40.238;18.256;2022-09-24T11:12:27;2.97;;;1.73;;
44558;SDS011;30270;40.238;18.256;2022-09-24T11:20:36;2.15;;;1.23;;
44558;SDS011;30270;40.238;18.256;2022-09-24T11:25:49;2.88;;;1.50;;
44558;SDS011;30270;40.238;18.256;2022-09-24T11:42:35;2.63;;;1.38;;
44558;SDS011;30270;40.238;18.256;2022-09-24T11:56:23;8.00;;;1.65;;
44558;SDS011;30270;40.238;18.256;2022-09-24T11:59:05;2.20;;;1.42;;
44558;SDS011;30270;40.238;18.256;2022-09-24T12:01:55;2.78;;;1.27;;
44558;SDS011;30270;40.238;18.256;2022-09-24T12:07:15;3.50;;;2.08;;
44558;SDS011;30270;40.238;18.256;2022-09-24T12:12:44;2.60;;;1.42;;
44558;SDS011;30270;40.238;18.256;2022-09-24T12:15:17;2.67;;;1.40;;
44558;SDS011;30270;40.238;18.256;2022-09-24T12:18:30;5.05;;;1.70;;
44558;SDS011;30270;40.238;18.256;2022-09-24T12:21:12;2.83;;;1.50;;
44558;SDS011;30270;40.238;18.256;2022-09-24T12:23:47;2.60;;;1.48;;
44558;SDS011;30270;40.238;18.256;2022-09-24T12:26:17;3.30;;;1.63;;
44558;SDS011;30270;40.238;18.256;2022-09-24T12:28:56;2.03;;;1.20;;
44558;SDS011;30270;40.238;18.256;2022-09-24T12:31:58;2.35;;;1.45;;
44558;SDS011;30270;40.238;18.256;2022-09-24T12:35:18;6.78;;;1.70;;
44558;SDS011;30270;40.238;18.256;2022-09-24T12:37:57;3.70;;;1.60;;
44558;SDS011;30270;40.238;18.256;2022-09-24T12:40:49;2.78;;;1.58;;
44558;SDS011;30270;40.238;18.256;2022-09-24T12:46:17;5.80;;;2.10;;
44558;SDS011;30270;40.238;18.256;2022-09-24T12:48:47;2.22;;;1.63;;
44558;SDS011;30270;40.238;18.256;2022-09-24T12:51:17;3.10;;;1.73;;
44558;SDS011;30270;40.238;18.256;2022-09-24T12:56:47;3.15;;;1.35;;
44558;SDS011;30270;40.238;18.256;2022-09-24T12:59:22;3.50;;;1.70;;
44558;SDS011;30270;40.238;18.256;2022-09-24T13:01:53;2.33;;;1.88;;
44558;SDS011;30270;40.238;18.256;2022-09-24T13:04:24;2.60;;;1.70;;
44558;SDS011;30270;40.238;18.256;2022-09-24T13:06:53;2.00;;;1.42;;
44558;SDS011;30270;40.238;18.256;2022-09-24T13:14:47;2.75;;;1.95;;
44558;SDS011;30270;40.238;18.256;2022-09-24T13:17:15;3.45;;;1.80;;
44558;SDS011;30270;40.238;18.256;2022-09-24T13:19:44;4.50;;;2.20;;
44558;SDS011;30270;40.238;18.256;2022-09-24T13:22:27;2.47;;;1.55;;
44558;SDS011;30270;40.238;18.256;2022-09-24T13:27:40;2.25;;;1.50;;
44558;SDS011;30270;40.238;18.256;2022-09-24T13:30:15;3.15;;;1.90;;
44558;SDS011;30270;40.238;18.256;2022-09-24T13:32:48;2.92;;;1.75;;
44558;SDS011;30270;40.238;18.256;2022-09-24T13:35:21;3.58;;;2.40;;
44558;SDS011;30270;40.238;18.256;2022-09-24T13:38:00;3.08;;;1.95;;
44558;SDS011;30270;40.238;18.256;2022-09-24T13:40:33;2.95;;;1.90;;
44558;SDS011;30270;40.238;18.256;2022-09-24T13:43:13;4.10;;;2.50;;
44558;SDS011;30270;40.238;18.256;2022-09-24T13:45:45;3.00;;;2.10;;
44558;SDS011;30270;40.238;18.256;2022-09-24T13:48:18;4.40;;;1.85;;
44558;SDS011;30270;40.238;18.256;2022-09-24T13:51:06;3.90;;;1.77;;
44558;SDS011;30270;40.238;18.256;2022-09-24T13:53:40;3.72;;;2.25;;
44558;SDS011;30270;40.238;18.256;2022-09-24T13:56:20;5.18;;;2.63;;
44558;SDS011;30270;40.238;18.256;2022-09-24T13:58:49;3.40;;;1.73;;
44558;SDS011;30270;40.238;18.256;2022-09-24T14:01:26;5.28;;;2.40;;
44558;SDS011;30270;40.238;18.256;2022-09-24T14:03:57;4.97;;;2.50;;
44558;SDS011;30270;40.238;18.256;2022-09-24T14:06:33;6.05;;;2.88;;
44558;SDS011;30270;40.238;18.256;2022-09-24T14:09:24;3.53;;;2.72;;
44558;SDS011;30270;40.238;18.256;2022-09-24T14:11:55;3.08;;;1.70;;
44558;SDS011;30270;40.238;18.256;2022-09-24T14:14:25;2.90;;;1.85;;
44558;SDS011;30270;40.238;18.256;2022-09-24T14:17:04;4.05;;;2.50;;
44558;SDS011;30270;40.238;18.256;2022-09-24T14:19:34;3.13;;;1.85;;
44558;SDS011;30270;40.238;18.256;2022-09-24T14:22:02;2.72;;;1.80;;
44558;SDS011;30270;40.238;18.256;2022-09-24T14:24:39;4.60;;;2.17;;
44558;SDS011;30270;40.238;18.256;2022-09-24T14:27:20;2.72;;;1.90;;
44558;SDS011;30270;40.238;18.256;2022-09-24T14:29:54;5.43;;;2.80;;
44558;SDS011;30270;40.238;18.256;2022-09-24T14:32:29;3.30;;;2.10;;
44558;SDS011;30270;40.238;18.256;2022-09-24T14:43:21;4.90;;;1.40;;
44558;SDS011;30270;40.238;18.256;2022-09-24T14:46:01;3.67;;;2.20;;
44558;SDS011;30270;40.238;18.256;2022-09-24T14:48:38;2.75;;;1.70;;
44558;SDS011;30270;40.238;18.256;2022-09-24T14:54:22;4.10;;;2.35;;
44558;SDS011;30270;40.238;18.256;2022-09-24T14:59:45;4.80;;;2.50;;
44558;SDS011;30270;40.238;18.256;2022-09-24T15:04:51;4.32;;;1.98;;
44558;SDS011;30270;40.238;18.256;2022-09-24T15:07:22;3.35;;;2.00;;
44558;SDS011;30270;40.238;18.256;2022-09-24T15:09:53;3.38;;;1.33;;
44558;SDS011;30270;40.238;18.256;2022-09-24T15:15:02;3.42;;;1.63;;
44558;SDS011;30270;40.238;18.256;2022-09-24T15:17:33;3.92;;;1.40;;
44558;SDS011;30270;40.238;18.256;2022-09-24T15:20:03;10.20;;;2.00;;
44558;SDS011;30270;40.238;18.256;2022-09-24T15:22:31;2.13;;;1.52;;
44558;SDS011;30270;40.238;18.256;2022-09-24T15:25:01;4.13;;;2.38;;
44558;SDS011;30270;40.238;18.256;2022-09-24T15:27:31;4.68;;;2.13;;
44558;SDS011;30270;40.238;18.256;2022-09-24T15:30:05;2.85;;;1.55;;
44558;SDS011;30270;40.238;18.256;2022-09-24T15:32:33;4.85;;;2.58;;
44558;SDS011;30270;40.238;18.256;2022-09-24T15:35:03;4.38;;;2.53;;
44558;SDS011;30270;40.238;18.256;2022-09-24T15:37:38;3.10;;;2.05;;
44558;SDS011;30270;40.238;18.256;2022-09-24T15:40:28;4.38;;;2.00;;
44558;SDS011;30270;40.238;18.256;2022-09-24T15:42:57;3.65;;;1.40;;
44558;SDS011;30270;40.238;18.256;2022-09-24T15:45:24;2.00;;;1.23;;
44558;SDS011;30270;40.238;18.256;2022-09-24T15:47:52;6.05;;;2.20;;
44558;SDS011;30270;40.238;18.256;2022-09-24T15:50:21;5.70;;;2.42;;
44558;SDS011;30270;40.238;18.256;2022-09-24T15:52:54;4.05;;;3.15;;
44558;SDS011;30270;40.238;18.256;2022-09-24T15:55:25;5.00;;;2.50;;
44558;SDS011;30270;40.238;18.256;2022-09-24T15:57:54;4.47;;;1.98;;
44558;SDS011;30270;40.238;18.256;2022-09-24T16:00:22;5.57;;;2.75;;
44558;SDS011;30270;40.238;18.256;2022-09-24T16:02:55;8.52;;;3.08;;
44558;SDS011;30270;40.238;18.256;2022-09-24T16:05:24;5.68;;;2.90;;
44558;SDS011;30270;40.238;18.256;2022-09-24T16:07:52;6.85;;;2.63;;
44558;SDS011;30270;40.238;18.256;2022-09-24T16:10:20;6.40;;;2.58;;
44558;SDS011;30270;40.238;18.256;2022-09-24T16:12:48;7.10;;;2.45;;
44558;SDS011;30270;40.238;18.256;2022-09-24T16:15:15;7.47;;;3.17;;
44558;SDS011;30270;40.238;18.256;2022-09-24T16:17:43;3.90;;;2.50;;
44558;SDS011;30270;40.238;18.256;2022-09-24T16:20:16;6.82;;;2.05;;
44558;SDS011;30270;40.238;18.256;2022-09-24T16:22:44;2.25;;;1.80;;
44558;SDS011;30270;40.238;18.256;2022-09-24T16:25:13;2.97;;;1.73;;
44558;SDS011;30270;40.238;18.256;2022-09-24T16:27:40;2.47;;;1.30;;
44558;SDS011;30270;40.238;18.256;2022-09-24T16:30:10;3.63;;;1.80;;
44558;SDS011;30270;40.238;18.256;2022-09-24T16:32:38;3.15;;;1.52;;
44558;SDS011;30270;40.238;18.256;2022-09-24T16:35:05;5.57;;;1.98;;
44558;SDS011;30270;40.238;18.256;2022-09-24T16:37:35;2.60;;;1.60;;
44558;SDS011;30270;40.238;18.256;2022-09-24T16:40:03;3.25;;;2.22;;
44558;SDS011;30270;40.238;18.256;2022-09-24T16:42:33;3.55;;;1.77;;
44558;SDS011;30270;40.238;18.256;2022-09-24T16:45:02;4.93;;;1.90;;
44558;SDS011;30270;40.238;18.256;2022-09-24T16:47:29;9.73;;;2.97;;
44558;SDS011;30270;40.238;18.256;2022-09-24T16:49:57;6.82;;;2.65;;
44558;SDS011;30270;40.238;18.256;2022-09-24T16:52:28;5.95;;;1.60;;
44558;SDS011;30270;40.238;18.256;2022-09-24T16:54:57;3.05;;;1.95;;
44558;SDS011;30270;40.238;18.256;2022-09-24T16:57:25;5.30;;;1.75;;
44558;SDS011;30270;40.238;18.256;2022-09-24T16:59:53;3.65;;;1.60;;
44558;SDS011;30270;40.238;18.256;2022-09-24T17:02:21;4.75;;;2.20;;
44558;SDS011;30270;40.238;18.256;2022-09-24T17:04:49;4.90;;;2.00;;
44558;SDS011;30270;40.238;18.256;2022-09-24T17:07:19;5.68;;;1.80;;
44558;SDS011;30270;40.238;18.256;2022-09-24T17:09:47;2.25;;;1.40;;
44558;SDS011;30270;40.238;18.256;2022-09-24T17:12:34;3.72;;;1.60;;
44558;SDS011;30270;40.238;18.256;2022-09-24T17:15:02;4.10;;;1.98;;
44558;SDS011;30270;40.238;18.256;2022-09-24T17:17:31;3.10;;;1.58;;
44558;SDS011;30270;40.238;18.256;2022-09-24T17:20:07;3.75;;;1.80;;
44558;SDS011;30270;40.238;18.256;2022-09-24T17:22:36;3.83;;;2.30;;
44558;SDS011;30270;40.238;18.256;2022-09-24T17:25:05;4.70;;;1.90;;
44558;SDS011;30270;40.238;18.256;2022-09-24T17:27:34;6.25;;;1.80;;
44558;SDS011;30270;40.238;18.256;2022-09-24T17:30:02;5.10;;;1.50;;
44558;SDS011;30270;40.238;18.256;2022-09-24T17:32:31;3.25;;;1.65;;